Time;durP1;ratioP1;P1;durP2;ratioP2;P2;SDS_P1;SDS_P2;PMS_P1;PMS_P2;Temp;Humidity;BMP_temperature;BMP_pressure;BME280_temperature;BME280_humidity;BME280_pressure;Samples;Min_cycle;Max_cycle;Signal;HPM_P1;HPM_P2
2020/12/03 00:01:41;;;;;;;50.34;31.83;;;6.80;99.90;;;12.31;87.36;100778.84;1689639;75;24508;-80
2020/12/03 00:04:02;;;;;;;42.30;24.03;;;6.80;99.90;;;12.16;87.62;100786.20;1680446;75;24496;-80
2020/12/03 00:06:22;;;;;;;47.71;26.90;;;6.80;99.90;;;11.90;87.85;100783.48;1687062;75;24477;-80
2020/12/03 00:08:50;;;;;;;46.41;27.63;;;6.80;99.90;;;11.90;88.29;100782.64;1680125;75;24518;-79
2020/12/03 00:11:08;;;;;;;39.61;22.51;;;6.80;99.90;;;11.91;88.92;100776.55;1680007;75;24485;-79
2020/12/03 00:13:27;;;;;;;44.65;25.39;;;6.80;99.90;;;11.82;88.79;100779.13;1696236;75;24900;-79
2020/12/03 00:15:44;;;;;;;49.21;30.34;;;6.80;99.90;;;12.08;88.63;100761.38;1682545;75;24606;-80
2020/12/03 00:18:00;;;;;;;39.19;20.72;;;6.80;99.90;;;12.24;88.24;100757.07;1689832;75;24493;-77
2020/12/03 00:20:21;;;;;;;43.19;26.00;;;6.80;99.90;;;11.88;88.49;100749.14;1688573;75;24904;-80
2020/12/03 00:22:36;;;;;;;34.30;19.77;;;6.80;99.90;;;11.97;88.73;100746.13;1686647;75;24487;-77
2020/12/03 00:24:52;;;;;;;46.94;31.00;;;6.80;99.90;;;11.62;89.73;100750.30;1685406;75;24516;-80
2020/12/03 00:27:12;;;;;;;48.26;28.88;;;6.80;99.90;;;12.04;89.85;100752.24;1683667;75;24518;-80
2020/12/03 00:29:28;;;;;;;43.88;24.00;;;6.80;99.90;;;12.26;88.66;100740.11;1689527;75;24556;-79
2020/12/03 00:31:49;;;;;;;44.18;24.59;;;6.90;99.90;;;12.01;88.03;100740.03;1696034;75;24459;-79
2020/12/03 00:34:10;;;;;;;53.20;32.05;;;6.80;99.90;;;11.92;88.68;100728.70;1678131;75;24501;-79
2020/12/03 00:36:27;;;;;;;50.96;32.17;;;6.90;99.90;;;12.22;88.71;100722.25;1684122;75;25020;-80
2020/12/03 00:38:54;;;;;;;49.27;28.43;;;6.90;99.90;;;12.08;89.05;100717.44;1694891;75;24724;-80
2020/12/03 00:41:10;;;;;;;50.99;31.60;;;6.90;99.90;;;12.11;87.89;100710.92;1682860;75;24462;-80
2020/12/03 00:43:26;;;;;;;40.50;24.17;;;6.80;99.90;;;12.22;87.94;100703.98;1694244;75;24452;-80
2020/12/03 00:45:42;;;;;;;53.48;33.07;;;6.90;99.90;;;12.18;87.82;100703.55;1685651;75;25133;-80
2020/12/03 00:48:00;;;;;;;47.33;27.28;;;6.90;99.90;;;12.36;87.70;100696.18;1683623;75;24566;-80
2020/12/03 00:50:18;;;;;;;51.71;31.81;;;6.90;99.90;;;12.11;87.25;100691.34;1677388;75;24981;-80
2020/12/03 00:52:35;;;;;;;49.76;30.38;;;6.90;99.90;;;12.18;88.19;100681.36;1685051;75;24526;-78
2020/12/03 00:54:52;;;;;;;52.84;30.74;;;6.90;99.90;;;12.27;87.75;100679.17;1684780;75;24521;-79
2020/12/03 00:57:10;;;;;;;52.00;30.22;;;6.90;99.90;;;12.12;87.88;100677.45;1689623;75;24556;-80
2020/12/03 00:59:27;;;;;;;51.83;30.93;;;6.90;99.90;;;12.11;88.06;100666.12;1688073;75;24476;-79
2020/12/03 01:01:44;;;;;;;43.37;27.41;;;6.90;99.90;;;12.14;88.39;100656.11;1697351;74;24516;-80
2020/12/03 01:04:02;;;;;;;50.28;31.54;;;6.90;99.90;;;12.14;87.89;100653.08;1699099;75;24472;-79
2020/12/03 01:06:20;;;;;;;54.60;32.91;;;6.90;99.90;;;12.19;87.99;100656.98;1680644;75;24437;-79
2020/12/03 01:08:37;;;;;;;47.93;28.43;;;6.90;99.90;;;12.21;88.24;100653.95;1682560;75;24883;-79
2020/12/03 01:10:53;;;;;;;50.79;30.47;;;6.90;99.90;;;12.11;88.26;100656.11;1686577;75;24507;-80
2020/12/03 01:13:09;;;;;;;40.20;22.16;;;6.90;99.90;;;12.28;87.77;100649.61;1684003;75;24398;-80
2020/12/03 01:15:25;;;;;;;38.10;21.16;;;6.90;99.90;;;12.12;87.21;100644.81;1681694;74;24524;-80
2020/12/03 01:17:42;;;;;;;50.41;31.69;;;6.90;99.90;;;11.94;88.92;100652.19;1667803;75;24619;-79
2020/12/03 01:20:01;;;;;;;34.36;19.02;;;6.90;99.90;;;12.23;88.36;100640.47;1681360;75;24973;-80
2020/12/03 01:22:17;;;;;;;48.36;29.09;;;6.90;99.90;;;11.87;88.38;100641.28;1696374;75;24483;-79
2020/12/03 01:24:34;;;;;;;48.74;31.20;;;6.90;99.90;;;12.09;88.92;100634.38;1685725;75;24456;-80
2020/12/03 01:26:50;;;;;;;43.92;29.10;;;6.90;99.90;;;12.31;88.37;100628.30;1682210;75;24531;-79
2020/12/03 01:29:06;;;;;;;42.47;27.13;;;6.90;99.90;;;12.26;87.18;100626.11;1692936;75;24909;-78
2020/12/03 01:31:22;;;;;;;42.65;27.01;;;6.90;99.90;;;12.13;87.90;100618.72;1684100;75;24486;-79
2020/12/03 01:33:38;;;;;;;42.01;26.44;;;6.90;99.90;;;12.05;87.96;100613.05;1683880;75;24468;-79
2020/12/03 01:35:54;;;;;;;37.49;18.45;;;6.80;99.90;;;12.23;87.72;100617.41;1687448;75;24648;-80
2020/12/03 01:38:11;;;;;;;42.48;26.29;;;6.80;99.90;;;11.72;88.22;100616.48;1683916;75;24471;-78
2020/12/03 01:40:28;;;;;;;40.80;24.70;;;6.80;99.90;;;11.75;88.80;100622.12;1689862;74;24879;-79
2020/12/03 01:42:45;;;;;;;36.70;23.37;;;6.70;99.90;;;11.84;88.58;100613.89;1688520;75;24428;-80
2020/12/03 01:45:03;;;;;;;32.81;20.38;;;6.70;99.90;;;11.84;87.94;100616.50;1688593;75;24441;-80
2020/12/03 01:47:27;;;;;;;36.00;21.83;;;6.70;99.90;;;11.82;88.25;100612.16;1693813;75;24876;-80
2020/12/03 01:49:43;;;;;;;41.78;25.07;;;6.70;99.90;;;11.91;87.64;100609.55;1679107;75;24462;-80
2020/12/03 01:52:00;;;;;;;39.38;25.48;;;6.70;99.90;;;11.96;87.94;100608.70;1679344;75;24449;-80
2020/12/03 01:54:20;;;;;;;41.60;25.95;;;6.70;99.90;;;11.84;88.53;100603.88;1686826;75;24885;-79
2020/12/03 01:56:55;;;;;;;36.57;24.45;;;6.70;99.90;;;12.02;88.56;100604.80;1682814;75;24448;-79
2020/12/03 01:59:15;;;;;;;39.47;25.99;;;6.70;99.90;;;11.82;89.10;100605.63;1685094;75;24437;-79
2020/12/03 02:01:32;;;;;;;28.41;18.00;;;6.70;99.90;;;11.70;89.86;100598.65;1679229;75;24450;-80
2020/12/03 02:03:51;;;;;;;44.15;26.13;;;6.70;99.90;;;11.63;88.83;100599.94;1694135;75;24478;-80
2020/12/03 02:06:08;;;;;;;31.47;19.50;;;6.60;99.90;;;11.79;88.58;100591.28;1680861;75;24536;-79
2020/12/03 02:08:27;;;;;;;37.86;26.44;;;6.60;99.90;;;11.61;88.33;100588.59;1687524;75;24516;-78
2020/12/03 02:10:43;;;;;;;37.62;23.27;;;6.60;99.90;;;11.72;88.53;100589.52;1687429;75;24452;-79
2020/12/03 02:12:59;;;;;;;38.99;24.34;;;6.60;99.90;;;11.60;87.73;100585.11;1690870;75;25224;-80
2020/12/03 02:15:18;;;;;;;38.24;24.98;;;6.50;99.90;;;11.48;88.80;100577.69;1682378;75;24556;-80
2020/12/03 02:17:35;;;;;;;38.67;24.47;;;6.50;99.90;;;11.64;88.63;100569.95;1677133;75;24437;-78
2020/12/03 02:19:57;;;;;;;40.73;25.72;;;6.50;99.90;;;11.60;88.41;100564.70;1677425;75;24883;-79
2020/12/03 02:22:13;;;;;;;37.15;25.08;;;6.50;99.90;;;11.78;88.55;100555.61;1691312;75;24877;-80
2020/12/03 02:24:33;;;;;;;38.56;26.15;;;6.50;99.90;;;11.70;88.92;100551.70;1682841;75;24580;-80
2020/12/03 02:26:53;;;;;;;35.81;22.84;;;6.50;99.90;;;11.69;88.92;100553.00;1678074;75;24438;-80
2020/12/03 02:29:08;;;;;;;37.45;25.21;;;6.50;99.90;;;11.42;88.83;100555.09;1683499;75;24880;-80
2020/12/03 02:31:24;;;;;;;33.81;20.79;;;6.50;99.90;;;11.71;89.28;100548.66;1694537;75;24390;-81
2020/12/03 02:33:41;;;;;;;40.26;25.65;;;6.50;99.90;;;11.65;88.63;100545.60;1696581;75;24968;-79
2020/12/03 02:35:59;;;;;;;39.86;25.23;;;6.50;99.90;;;11.72;88.49;100542.57;1696082;75;24464;-79
2020/12/03 02:38:16;;;;;;;37.60;24.23;;;6.50;99.90;;;11.83;87.85;100531.70;1682988;75;24509;-80
2020/12/03 02:40:32;;;;;;;35.93;19.70;;;6.50;99.90;;;11.72;87.69;100533.44;1688915;75;24424;-78
2020/12/03 02:42:48;;;;;;;35.42;20.67;;;6.50;99.90;;;11.39;88.75;100522.92;1677878;75;24489;-80
2020/12/03 02:45:06;;;;;;;38.83;23.87;;;6.50;99.90;;;11.60;88.88;100517.30;1683108;75;24531;-80
2020/12/03 02:47:25;;;;;;;34.85;20.58;;;6.50;99.90;;;11.68;88.19;100519.52;1688132;75;24882;-79
2020/12/03 02:49:41;;;;;;;39.64;25.71;;;6.50;99.90;;;11.34;88.96;100502.49;1682999;75;24430;-80
2020/12/03 02:51:57;;;;;;;38.72;22.95;;;6.50;99.90;;;11.61;89.30;100502.11;1678892;75;24469;-79
2020/12/03 02:54:15;;;;;;;39.58;24.48;;;6.50;99.90;;;11.35;89.35;100496.43;1692206;75;24930;-79
2020/12/03 02:56:31;;;;;;;39.01;24.21;;;6.50;99.90;;;11.51;88.94;100490.34;1686649;75;24527;-79
2020/12/03 02:58:48;;;;;;;38.40;23.04;;;6.40;99.90;;;11.45;89.19;100489.04;1694691;75;24552;-79
2020/12/03 03:01:05;;;;;;;33.89;24.50;;;6.40;99.90;;;11.29;89.53;100485.55;1688916;75;24516;-80
2020/12/03 03:03:21;;;;;;;36.53;24.00;;;6.50;99.90;;;11.54;89.13;100488.62;1684344;74;24893;-79
2020/12/03 03:05:37;;;;;;;41.44;26.43;;;6.40;99.90;;;11.56;88.95;100489.92;1693994;75;24565;-80
2020/12/03 03:07:54;;;;;;;38.94;22.96;;;6.40;99.90;;;11.38;89.48;100489.46;1677992;75;24529;-80
2020/12/03 03:10:14;;;;;;;39.37;24.98;;;6.40;99.90;;;11.44;89.01;100487.31;1690887;74;24511;-78
2020/12/03 03:12:30;;;;;;;38.11;22.61;;;6.40;99.90;;;11.45;88.30;100480.80;1681313;75;24875;-80
2020/12/03 03:14:46;;;;;;;35.31;22.52;;;6.40;99.90;;;11.32;88.54;100476.84;1689388;75;24422;-79
2020/12/03 03:17:02;;;;;;;40.82;22.64;;;6.30;99.90;;;11.27;89.30;100485.12;1686764;75;24495;-80
2020/12/03 03:19:19;;;;;;;41.33;23.65;;;6.30;99.90;;;11.58;88.50;100477.77;1677370;75;24543;-79
2020/12/03 03:21:36;;;;;;;38.26;24.95;;;6.30;99.90;;;11.22;89.45;100468.59;1689085;75;24505;-79
2020/12/03 03:23:52;;;;;;;39.83;24.41;;;6.30;99.90;;;11.36;89.08;100467.76;1687599;75;24452;-81
2020/12/03 03:26:09;;;;;;;35.35;21.60;;;6.30;99.90;;;11.56;88.91;100469.06;1687395;75;24481;-80
2020/12/03 03:28:25;;;;;;;39.70;25.26;;;6.30;99.90;;;11.41;88.00;100465.16;1702742;75;24439;-79
2020/12/03 03:30:42;;;;;;;38.60;23.88;;;6.30;99.90;;;11.41;88.31;100454.27;1692462;75;24861;-81
2020/12/03 03:32:59;;;;;;;36.32;23.72;;;6.30;99.90;;;11.35;89.03;100455.57;1689958;75;24469;-81
2020/12/03 03:35:19;;;;;;;39.99;24.87;;;6.30;99.90;;;11.46;89.35;100451.23;1683021;75;24433;-82
2020/12/03 03:37:38;;;;;;;40.99;24.50;;;6.30;99.90;;;11.55;88.96;100449.08;1687578;74;24468;-81
2020/12/03 03:39:54;;;;;;;39.58;23.79;;;6.30;99.90;;;11.72;88.15;100452.58;1678370;75;24457;-80
2020/12/03 03:42:10;;;;;;;33.47;18.20;;;6.30;99.90;;;11.57;87.63;100449.50;1679282;75;24564;-81
2020/12/03 03:44:27;;;;;;;34.16;22.02;;;6.30;99.90;;;11.39;88.09;100442.99;1684339;75;24495;-80
2020/12/03 03:46:43;;;;;;;37.59;22.03;;;6.30;99.90;;;11.37;88.76;100436.02;1687971;75;24522;-81
2020/12/03 03:49:01;;;;;;;32.19;18.33;;;6.40;99.90;;;11.41;89.29;100436.02;1686591;75;24505;-80
2020/12/03 03:51:19;;;;;;;35.92;21.94;;;6.40;99.90;;;11.37;89.26;100433.41;1683168;75;24438;-80
2020/12/03 03:53:36;;;;;;;36.99;22.78;;;6.40;99.90;;;11.68;88.63;100432.61;1694751;75;24448;-80
2020/12/03 03:55:52;;;;;;;40.09;22.97;;;6.40;99.90;;;11.65;88.76;100428.23;1688743;75;24440;-81
2020/12/03 03:58:09;;;;;;;34.17;21.75;;;6.50;99.90;;;11.57;89.50;100420.81;1686715;75;24784;-79
2020/12/03 04:00:27;;;;;;;26.88;15.90;;;6.50;99.90;;;11.64;88.55;100418.69;1686575;75;24433;-78
2020/12/03 04:02:44;;;;;;;30.97;17.37;;;6.50;99.90;;;11.33;89.76;100413.02;1690979;75;24537;-80
2020/12/03 04:05:05;;;;;;;35.97;21.24;;;6.50;99.90;;;11.35;90.26;100411.26;1693655;75;24968;-81
2020/12/03 04:07:21;;;;;;;31.22;19.21;;;6.50;99.90;;;11.83;89.70;100404.76;1689082;75;24432;-80
2020/12/03 04:09:37;;;;;;;36.08;21.35;;;6.60;99.90;;;11.62;88.54;100396.03;1687293;74;24578;-80
2020/12/03 04:11:53;;;;;;;31.84;18.89;;;6.60;99.90;;;11.62;88.58;100394.73;1683689;74;24428;-80
2020/12/03 04:14:09;;;;;;;33.00;21.45;;;6.60;99.90;;;11.53;89.05;100394.33;1683105;75;24480;-80
2020/12/03 04:16:25;;;;;;;34.48;21.09;;;6.60;99.90;;;11.72;88.97;100397.81;1692724;75;24456;-80
2020/12/03 04:18:41;;;;;;;29.89;17.68;;;6.70;99.90;;;11.77;88.25;100393.46;1678615;75;24442;-82
2020/12/03 04:21:00;;;;;;;26.67;16.46;;;6.70;99.90;;;11.46;88.82;100399.55;1689827;75;24365;-80
2020/12/03 04:23:16;;;;;;;32.90;22.30;;;6.70;99.90;;;11.56;88.96;100389.11;1687158;75;24945;-81
2020/12/03 04:25:33;;;;;;;35.09;21.91;;;6.70;99.90;;;11.79;87.88;100386.05;1697510;74;24931;-81
2020/12/03 04:27:49;;;;;;;35.44;22.38;;;6.70;99.90;;;11.75;87.68;100387.37;1678063;74;24536;-80
2020/12/03 04:30:09;;;;;;;30.97;19.03;;;6.80;99.90;;;11.75;87.37;100387.37;1688315;75;24441;-80
2020/12/03 04:32:25;;;;;;;32.86;20.45;;;6.80;99.90;;;11.47;88.55;100381.72;1682002;75;25039;-80
2020/12/03 04:34:42;;;;;;;31.07;19.04;;;6.80;99.90;;;11.50;89.71;100381.30;1691368;75;24887;-79
2020/12/03 04:36:58;;;;;;;32.39;19.48;;;6.70;99.90;;;11.65;88.44;100376.54;1695194;75;24875;-80
2020/12/03 04:39:14;;;;;;;31.13;19.72;;;6.80;99.90;;;11.67;88.31;100373.47;1694846;75;24394;-79
2020/12/03 04:41:30;;;;;;;31.73;17.98;;;6.80;99.90;;;11.58;88.71;100372.16;1698818;75;24886;-79
2020/12/03 04:43:50;;;;;;;30.87;18.30;;;6.70;99.90;;;11.58;89.15;100365.63;1679564;75;24957;-78
2020/12/03 04:46:20;;;;;;;34.04;20.11;;;6.80;99.90;;;11.45;88.51;100369.99;1689373;75;24916;-80
2020/12/03 04:49:23;;;;;;;32.33;19.13;;;6.70;99.90;;;11.66;88.21;100348.27;1690724;75;24512;-80
2020/12/03 04:51:44;;;;;;;32.62;18.45;;;6.80;99.90;;;11.72;87.95;100341.73;1692041;75;24505;-79
2020/12/03 04:54:12;;;;;;;19.64;11.34;;;6.70;99.90;;;11.62;88.45;100331.72;1687547;75;24961;-79
2020/12/03 04:56:34;;;;;;;33.66;18.41;;;6.70;99.90;;;11.45;88.63;100321.77;1680810;75;24878;-80
2020/12/03 04:59:00;;;;;;;32.22;20.64;;;6.70;99.90;;;11.50;89.15;100324.36;1694462;75;24956;-81
2020/12/03 05:01:57;;;;;;;33.00;22.08;;;6.70;99.90;;;11.84;88.12;100309.96;1681596;75;24864;-80
2020/12/03 05:04:26;;;;;;;29.71;17.73;;;6.70;99.90;;;11.81;87.36;100309.09;1691964;75;24526;-82
2020/12/03 05:07:00;;;;;;;31.57;19.04;;;6.70;99.90;;;11.49;88.58;100306.53;1680679;75;24457;-79
2020/12/03 05:09:24;;;;;;;30.65;18.63;;;6.70;99.90;;;11.56;88.69;100300.88;1695937;75;24554;-78
2020/12/03 05:11:47;;;;;;;31.00;19.63;;;6.70;99.90;;;11.47;88.88;100294.38;1692793;75;24468;-80
2020/12/03 05:14:08;;;;;;;32.51;21.38;;;6.70;99.90;;;11.54;88.77;100288.30;1683955;75;24465;-80
2020/12/03 05:16:33;;;;;;;33.29;19.13;;;6.70;99.90;;;11.66;89.28;100277.43;1690333;75;24500;-81
2020/12/03 05:18:58;;;;;;;33.79;21.37;;;6.70;99.90;;;11.63;87.99;100263.06;1679465;75;24458;-82
2020/12/03 05:21:22;;;;;;;29.92;18.94;;;6.70;99.90;;;11.71;88.22;100263.06;1672817;75;24476;-79
2020/12/03 05:23:40;;;;;;;32.44;21.30;;;6.70;99.90;;;11.54;88.15;100254.41;1684446;75;24507;-81
2020/12/03 05:25:58;;;;;;;33.75;21.01;;;6.70;99.90;;;11.66;88.25;100249.17;1681833;75;24444;-80
2020/12/03 05:28:56;;;;;;;29.02;19.36;;;6.60;99.90;;;11.49;88.55;100256.15;1688229;75;24452;-81
2020/12/03 05:34:14;;;;;;;29.65;17.84;;;6.50;99.90;;;11.80;86.64;100235.64;1738661;72;25709;-80
2020/12/03 05:36:35;;;;;;;26.74;14.87;;;6.50;99.90;;;11.43;88.24;100245.74;1696529;75;24476;-81
2020/12/03 05:38:55;;;;;;;22.86;15.32;;;6.40;99.90;;;11.24;88.61;100240.14;1697663;75;24397;-80
2020/12/03 05:41:36;;;;;;;30.33;19.46;;;6.40;99.90;;;11.26;88.73;100231.86;1703256;75;24565;-81
2020/12/03 05:43:52;;;;;;;24.49;16.43;;;6.40;99.90;;;11.34;88.77;100234.02;1684784;75;24549;-81
2020/12/03 05:46:12;;;;;;;27.39;18.61;;;6.40;99.90;;;11.46;88.58;100233.55;1698644;75;24515;-81
2020/12/03 05:49:13;;;;;;;22.20;16.61;;;6.30;99.90;;;11.29;88.83;100224.91;1662242;76;24418;-81
2020/12/03 05:51:34;;;;;;;23.99;16.73;;;6.30;99.90;;;11.36;89.00;100225.77;1696141;75;24370;-81
2020/12/03 05:54:02;;;;;;;24.89;17.36;;;6.30;99.90;;;11.32;89.03;100226.63;1697787;75;24389;-81
2020/12/03 05:56:23;;;;;;;22.89;16.96;;;6.30;99.90;;;11.40;88.86;100222.26;1694750;75;24488;-82
2020/12/03 05:58:44;;;;;;;25.90;18.72;;;6.30;99.90;;;11.24;89.45;100221.44;1702606;75;24873;-81
2020/12/03 06:01:09;;;;;;;26.68;17.50;;;6.30;99.90;;;11.47;90.10;100217.47;1694805;75;24499;-82
2020/12/03 06:07:15;;;;;;;22.68;14.71;;;6.40;99.90;;;11.30;89.73;100200.56;1767031;71;32435;-81
2020/12/03 06:09:48;;;;;;;23.83;16.44;;;6.30;99.90;;;11.06;91.61;100203.67;1740347;73;24493;-83
2020/12/03 06:12:19;;;;;;;19.83;12.88;;;6.30;99.90;;;11.18;90.93;100194.52;1732539;73;24427;-82
2020/12/03 06:15:23;;;;;;;23.72;17.36;;;6.30;99.90;;;11.25;90.40;100203.64;1729970;73;25042;-82
2020/12/03 06:18:05;;;;;;;15.83;10.90;;;6.30;99.90;;;11.14;91.37;100199.32;1729511;73;24579;-80
2020/12/03 06:20:40;;;;;;;19.72;13.53;;;6.30;99.90;;;10.90;91.86;100185.03;1721500;73;24454;-87
2020/12/03 06:23:16;;;;;;;14.85;10.19;;;6.30;99.90;;;11.12;91.79;100181.52;1726912;73;24452;-81
2020/12/03 06:25:45;;;;;;;20.27;14.21;;;6.20;99.90;;;10.86;92.20;100166.38;1729735;73;24490;-85
2020/12/03 06:29:05;;;;;;;22.77;16.76;;;6.30;99.90;;;11.02;92.71;100168.94;1735462;73;24517;-81
2020/12/03 06:31:29;;;;;;;21.02;14.78;;;6.30;99.90;;;11.22;92.20;100168.48;1739282;73;24423;-81
2020/12/03 06:33:52;;;;;;;20.67;15.00;;;6.30;99.90;;;11.14;91.42;100161.54;1738709;73;24422;-80
2020/12/03 06:36:31;;;;;;;20.60;15.01;;;6.20;99.90;;;11.16;91.78;100162.41;1732425;73;24426;-81
2020/12/03 06:39:07;;;;;;;21.47;13.95;;;6.30;99.90;;;11.09;91.88;100156.77;1729504;73;24556;-81
2020/12/03 06:44:24;;;;;;;20.80;14.33;;;6.30;99.90;;;11.40;91.25;100151.45;1737799;72;25233;-80
2020/12/03 06:47:16;;;;;;;21.87;14.96;;;6.30;99.90;;;10.97;92.63;100148.54;1720545;73;24599;-81
2020/12/03 06:50:01;;;;;;;19.01;13.77;;;6.30;99.90;;;10.98;92.72;100141.17;1717819;73;24476;-79
2020/12/03 06:53:14;;;;;;;21.26;13.44;;;6.20;99.90;;;11.09;93.14;100132.89;1717229;73;24500;-77
2020/12/03 06:56:07;;;;;;;20.52;13.57;;;6.20;99.90;;;11.07;92.53;100130.72;1722717;73;24977;-79
2020/12/03 07:02:09;;;;;;;19.91;13.95;;;6.20;99.90;;;11.42;91.41;100121.47;1739594;72;25304;-79
2020/12/03 07:05:24;;;;;;;22.24;16.19;;;6.20;99.90;;;11.05;92.54;100116.83;1702053;75;25067;-79
2020/12/03 07:08:59;;;;;;;22.67;13.84;;;6.20;99.90;;;11.22;92.47;100111.56;1692912;74;24631;-79
2020/12/03 07:15:42;;;;;;;29.30;19.70;;;6.20;99.90;;;11.39;92.37;100111.94;1800147;69;25320;-79
2020/12/03 07:18:46;;;;;;;17.69;9.54;;;6.20;99.90;;;11.18;93.33;100118.52;1674249;71;24490;-79
2020/12/03 07:21:46;;;;;;;25.94;15.45;;;6.10;99.90;;;10.66;94.09;100108.69;1762257;71;25001;-75
2020/12/03 07:24:08;;;;;;;31.34;20.38;;;6.10;99.90;;;11.00;93.92;100109.91;1774494;72;24916;-77
2020/12/03 07:26:50;;;;;;;25.51;18.35;;;6.10;99.90;;;11.04;93.68;100102.50;1772244;70;24519;-78
2020/12/03 07:29:13;;;;;;;27.42;15.37;;;6.10;99.90;;;10.91;94.06;100092.55;1777150;71;24433;-79
2020/12/03 07:34:27;;;;;;;15.70;12.07;;;6.10;99.90;;;11.11;93.28;100093.34;1734001;72;25687;-77
2020/12/03 07:36:51;;;;;;;27.02;15.63;;;6.10;99.90;;;10.73;94.54;100101.28;1693827;75;24898;-77
2020/12/03 07:39:12;;;;;;;30.94;19.99;;;6.10;99.90;;;10.99;94.25;100097.73;1696753;75;24535;-79
2020/12/03 07:41:32;;;;;;;26.45;15.15;;;6.20;99.90;;;11.34;93.17;100099.35;1694101;75;24452;-77
2020/12/03 07:43:48;;;;;;;24.73;15.03;;;6.20;99.90;;;11.15;93.10;100101.60;1700847;73;24431;-76
2020/12/03 07:48:48;;;;;;;24.37;14.76;;;6.20;99.90;;;11.31;93.47;100088.06;1735850;72;25717;-77
2020/12/03 07:51:18;;;;;;;20.52;12.98;;;6.20;99.90;;;11.01;94.20;100083.86;1700431;75;24873;-78
2020/12/03 07:53:37;;;;;;;22.66;14.02;;;6.20;99.90;;;11.03;93.96;100082.55;1705917;75;24885;-78
2020/12/03 07:55:53;;;;;;;22.71;16.00;;;6.20;99.90;;;10.96;94.01;100080.39;1693785;75;24585;-77
2020/12/03 07:58:34;;;;;;;20.23;12.71;;;6.20;99.90;;;11.04;94.13;100076.45;1705085;75;24498;-77
2020/12/03 08:00:52;;;;;;;24.30;16.02;;;6.20;99.90;;;10.80;94.82;100067.41;1696435;75;24522;-79
2020/12/03 08:03:09;;;;;;;18.49;11.24;;;6.20;99.90;;;10.93;94.67;100072.59;1693813;75;24536;-76
2020/12/03 08:05:56;;;;;;;15.65;10.57;;;6.20;99.90;;;10.79;94.83;100063.08;1696631;75;24457;-77
2020/12/03 08:11:41;;;;;;;22.74;14.74;;;6.20;99.90;;;11.49;93.15;100051.03;1746666;72;25678;-78
2020/12/03 08:13:59;;;;;;;17.00;12.71;;;6.20;99.90;;;11.16;93.68;100052.97;1720096;73;24876;-76
2020/12/03 08:16:33;;;;;;;19.90;12.20;;;6.20;99.90;;;10.69;95.10;100056.61;1720265;73;24479;-78
2020/12/03 08:19:00;;;;;;;18.96;13.08;;;6.20;99.90;;;10.87;94.65;100043.09;1721160;73;24620;-79
2020/12/03 08:21:19;;;;;;;13.07;9.39;;;6.20;99.90;;;10.91;94.86;100040.92;1714278;73;24488;-76
2020/12/03 08:23:36;;;;;;;23.57;14.34;;;6.10;99.90;;;10.73;95.21;100044.88;1714995;73;24531;-78
2020/12/03 08:25:52;;;;;;;21.89;13.60;;;6.10;99.90;;;10.87;94.69;100032.67;1718573;73;25320;-77
2020/12/03 08:28:13;;;;;;;19.89;13.26;;;6.20;99.90;;;11.01;94.62;100033.05;1715762;73;24513;-77
2020/12/03 08:30:38;;;;;;;15.51;10.89;;;6.20;99.90;;;11.07;94.15;100029.54;1718737;73;24499;-77
2020/12/03 08:33:01;;;;;;;23.37;14.57;;;6.20;99.90;;;10.99;94.47;100028.28;1724371;73;25016;-76
2020/12/03 08:35:18;;;;;;;25.60;15.19;;;6.20;99.90;;;11.17;94.07;100024.73;1724522;73;24576;-77
2020/12/03 08:37:34;;;;;;;22.31;13.98;;;6.30;99.90;;;11.19;94.46;100025.59;1714386;73;24516;-77
2020/12/03 08:39:53;;;;;;;23.00;14.72;;;6.30;99.90;;;11.18;93.88;100019.50;1718920;73;24546;-77
2020/12/03 08:44:54;;;;;;;22.20;12.90;;;6.30;99.90;;;11.61;92.91;100016.20;1741471;72;25253;-77
2020/12/03 08:47:17;;;;;;;24.46;14.02;;;6.40;99.90;;;11.26;93.62;100016.85;1709857;73;24442;-78
2020/12/03 08:49:34;;;;;;;21.55;13.03;;;6.30;99.90;;;11.38;93.33;100008.52;1706838;74;25033;-75
2020/12/03 08:51:53;;;;;;;15.18;9.52;;;6.40;99.90;;;11.42;92.94;100001.12;1709664;73;24901;-76
2020/12/03 08:54:10;;;;;;;21.85;13.44;;;6.40;99.90;;;11.36;92.77;100003.78;1704004;74;24452;-75
2020/12/03 08:56:40;;;;;;;19.65;12.85;;;6.40;99.90;;;11.39;92.99;99999.84;1703908;74;24488;-74
2020/12/03 09:01:42;;;;;;;17.98;11.34;;;6.40;99.90;;;11.81;91.82;99996.95;1738298;72;25315;-76
2020/12/03 09:04:02;;;;;;;18.88;11.19;;;6.40;99.90;;;11.35;92.85;100000.73;1719625;73;24374;-76
2020/12/03 09:06:19;;;;;;;17.63;9.84;;;6.40;99.90;;;11.23;92.90;99993.42;1718392;73;24632;-79
2020/12/03 09:08:36;;;;;;;18.03;10.81;;;6.40;99.90;;;11.24;93.12;100003.83;1714428;74;24517;-78
2020/12/03 09:10:56;;;;;;;19.44;11.83;;;6.40;99.90;;;11.26;93.02;100002.52;1714247;73;24504;-76
2020/12/03 09:13:14;;;;;;;20.97;11.80;;;6.40;99.90;;;11.34;92.27;99999.00;1713967;74;24527;-79
2020/12/03 09:15:31;;;;;;;14.35;9.70;;;6.40;99.90;;;11.26;92.91;99991.66;1714874;74;25012;-76
2020/12/03 09:17:53;;;;;;;20.22;13.43;;;6.40;99.90;;;11.13;93.43;99993.06;1719738;73;24916;-77
2020/12/03 09:20:12;;;;;;;22.25;14.50;;;6.40;99.90;;;11.30;93.09;99991.22;1714117;73;24907;-79
2020/12/03 09:22:29;;;;;;;22.87;15.20;;;6.40;99.90;;;11.31;92.71;99990.33;1720758;73;24924;-75
2020/12/03 09:24:49;;;;;;;21.03;13.23;;;6.40;99.90;;;11.37;92.31;99983.77;1714351;73;24465;-76
2020/12/03 09:27:09;;;;;;;18.33;12.56;;;6.40;99.90;;;11.01;92.68;99969.66;1714933;73;24498;-76
2020/12/03 09:29:25;;;;;;;22.35;15.28;;;6.30;99.90;;;11.06;93.04;99970.08;1725430;73;24483;-76
2020/12/03 09:31:41;;;;;;;20.19;13.04;;;6.30;99.90;;;11.11;93.11;99960.47;1716468;73;24536;-75
2020/12/03 09:33:59;;;;;;;24.10;14.91;;;6.30;99.90;;;11.16;92.60;99960.47;1717048;73;24560;-77
2020/12/03 09:36:15;;;;;;;24.23;13.97;;;6.30;99.90;;;11.22;91.90;99957.82;1714200;73;24622;-76
2020/12/03 09:38:32;;;;;;;26.84;16.84;;;6.30;99.90;;;10.97;92.98;99953.63;1722675;73;24433;-77
2020/12/03 09:40:51;;;;;;;25.50;16.58;;;6.20;99.90;;;11.08;93.49;99946.63;1714666;73;24413;-76
2020/12/03 09:43:08;;;;;;;21.00;13.58;;;6.20;99.90;;;11.13;93.28;99948.77;1717071;73;25007;-76
2020/12/03 09:45:33;;;;;;;24.80;15.63;;;6.20;99.90;;;11.01;92.63;99943.61;1713608;73;24541;-75
2020/12/03 09:47:47;;;;;;;22.49;14.84;;;6.20;99.90;;;11.08;92.94;99934.44;1713471;73;24468;-78
2020/12/03 09:50:05;;;;;;;27.01;15.48;;;6.20;99.90;;;11.05;92.73;99929.71;1719805;73;24681;-76
2020/12/03 09:52:26;;;;;;;20.67;12.27;;;6.20;99.90;;;11.13;93.89;99920.95;1713853;73;25906;-76
2020/12/03 09:54:43;;;;;;;18.36;12.40;;;6.30;99.90;;;10.79;93.72;99914.22;1717452;73;24522;-77
2020/12/03 09:57:00;;;;;;;23.73;16.56;;;6.20;99.90;;;10.80;93.74;99906.83;1713684;73;25069;-76
2020/12/03 09:59:16;;;;;;;17.04;10.96;;;6.20;99.90;;;10.98;93.75;99884.59;1713364;74;24533;-78
2020/12/03 10:01:57;;;;;;;23.07;14.77;;;6.20;99.90;;;10.84;93.75;99885.13;1719363;73;25034;-77
2020/12/03 10:07:25;;;;;;;14.65;9.18;;;6.20;99.90;;;11.21;93.37;99861.84;1737420;72;25332;-75
2020/12/03 10:10:08;;;;;;;23.12;15.84;;;6.20;99.90;;;10.81;93.65;99856.50;1667994;76;24612;-79
2020/12/03 10:12:52;;;;;;;20.91;12.17;;;6.20;99.90;;;11.02;94.37;99851.13;1714707;73;24976;-78
2020/12/03 10:15:53;;;;;;;24.65;16.62;;;6.20;99.90;;;11.05;93.31;99847.19;1718824;73;24534;-79
2020/12/03 10:18:16;;;;;;;21.76;12.71;;;6.20;99.90;;;11.22;93.29;99833.63;1713804;73;24481;-77
2020/12/03 10:20:39;;;;;;;26.60;15.10;;;6.20;99.90;;;11.25;92.25;99838.80;1718224;73;25892;-78
2020/12/03 10:23:30;;;;;;;22.63;15.15;;;6.20;99.90;;;11.22;92.27;99833.63;1721089;73;24468;-76
2020/12/03 10:25:56;;;;;;;23.73;14.61;;;6.20;99.90;;;11.14;92.81;99841.06;1707773;73;24491;-75